sensor_id;sensor_type;location;lat;lon;timestamp;P1;durP1;ratioP1;P2;durP2;ratioP2
62654;SDS011;48717;55.556;37.816;2023-09-19T00:00:44;55.90;;;26.30;;
62654;SDS011;48717;55.556;37.816;2023-09-19T00:05:42;52.88;;;25.63;;
62654;SDS011;48717;55.556;37.816;2023-09-19T00:08:11;64.88;;;27.45;;
62654;SDS011;48717;55.556;37.816;2023-09-19T00:13:09;49.85;;;23.45;;
62654;SDS011;48717;55.556;37.816;2023-09-19T00:15:43;53.90;;;25.80;;
62654;SDS011;48717;55.556;37.816;2023-09-19T00:18:17;54.20;;;25.83;;
62654;SDS011;48717;55.556;37.816;2023-09-19T00:20:48;54.38;;;26.42;;
62654;SDS011;48717;55.556;37.816;2023-09-19T00:23:20;59.50;;;26.85;;
62654;SDS011;48717;55.556;37.816;2023-09-19T00:25:48;71.20;;;28.70;;
62654;SDS011;48717;55.556;37.816;2023-09-19T00:28:17;68.63;;;30.42;;
62654;SDS011;48717;55.556;37.816;2023-09-19T00:30:47;126.95;;;31.33;;
62654;SDS011;48717;55.556;37.816;2023-09-19T00:33:17;142.05;;;30.50;;
62654;SDS011;48717;55.556;37.816;2023-09-19T00:35:50;156.32;;;31.00;;
62654;SDS011;48717;55.556;37.816;2023-09-19T00:38:21;345.17;;;39.08;;
62654;SDS011;48717;55.556;37.816;2023-09-19T00:40:53;375.98;;;42.33;;
62654;SDS011;48717;55.556;37.816;2023-09-19T00:43:24;291.02;;;37.33;;
62654;SDS011;48717;55.556;37.816;2023-09-19T00:45:53;300.85;;;38.83;;
62654;SDS011;48717;55.556;37.816;2023-09-19T00:48:22;284.77;;;37.63;;
62654;SDS011;48717;55.556;37.816;2023-09-19T00:50:54;362.60;;;46.13;;
62654;SDS011;48717;55.556;37.816;2023-09-19T00:53:33;282.77;;;35.40;;
62654;SDS011;48717;55.556;37.816;2023-09-19T00:56:02;426.70;;;45.72;;
62654;SDS011;48717;55.556;37.816;2023-09-19T00:58:34;180.93;;;37.10;;
62654;SDS011;48717;55.556;37.816;2023-09-19T01:01:04;195.95;;;37.35;;
62654;SDS011;48717;55.556;37.816;2023-09-19T01:03:36;291.02;;;37.72;;
62654;SDS011;48717;55.556;37.816;2023-09-19T01:06:05;384.48;;;43.72;;
62654;SDS011;48717;55.556;37.816;2023-09-19T01:08:34;295.27;;;38.00;;
62654;SDS011;48717;55.556;37.816;2023-09-19T01:11:09;430.80;;;43.35;;
62654;SDS011;48717;55.556;37.816;2023-09-19T01:13:56;174.32;;;35.22;;
62654;SDS011;48717;55.556;37.816;2023-09-19T01:16:48;311.88;;;38.33;;
62654;SDS011;48717;55.556;37.816;2023-09-19T01:19:32;92.90;;;31.63;;
62654;SDS011;48717;55.556;37.816;2023-09-19T01:22:37;105.45;;;32.17;;
62654;SDS011;48717;55.556;37.816;2023-09-19T01:28:30;335.15;;;41.47;;
62654;SDS011;48717;55.556;37.816;2023-09-19T01:31:09;229.35;;;35.45;;
62654;SDS011;48717;55.556;37.816;2023-09-19T01:33:54;129.20;;;33.88;;
62654;SDS011;48717;55.556;37.816;2023-09-19T01:36:24;131.95;;;33.45;;
62654;SDS011;48717;55.556;37.816;2023-09-19T01:38:51;87.78;;;30.58;;
62654;SDS011;48717;55.556;37.816;2023-09-19T01:44:13;188.00;;;37.15;;
62654;SDS011;48717;55.556;37.816;2023-09-19T01:46:46;211.43;;;37.05;;
62654;SDS011;48717;55.556;37.816;2023-09-19T01:49:16;112.00;;;34.78;;
62654;SDS011;48717;55.556;37.816;2023-09-19T01:51:56;141.05;;;34.42;;
62654;SDS011;48717;55.556;37.816;2023-09-19T01:54:48;133.10;;;32.85;;
62654;SDS011;48717;55.556;37.816;2023-09-19T01:57:26;89.50;;;31.00;;
62654;SDS011;48717;55.556;37.816;2023-09-19T01:59:59;95.97;;;31.83;;
62654;SDS011;48717;55.556;37.816;2023-09-19T02:02:42;90.15;;;29.20;;
62654;SDS011;48717;55.556;37.816;2023-09-19T02:05:21;82.28;;;26.63;;
62654;SDS011;48717;55.556;37.816;2023-09-19T02:07:51;105.13;;;28.23;;
62654;SDS011;48717;55.556;37.816;2023-09-19T02:10:20;82.20;;;25.73;;
62654;SDS011;48717;55.556;37.816;2023-09-19T02:12:48;94.55;;;26.50;;
62654;SDS011;48717;55.556;37.816;2023-09-19T02:15:15;95.43;;;28.40;;
62654;SDS011;48717;55.556;37.816;2023-09-19T02:17:44;76.70;;;24.70;;
62654;SDS011;48717;55.556;37.816;2023-09-19T02:20:13;71.03;;;24.88;;
62654;SDS011;48717;55.556;37.816;2023-09-19T02:22:44;96.35;;;25.33;;
62654;SDS011;48717;55.556;37.816;2023-09-19T02:25:31;116.00;;;26.38;;
62654;SDS011;48717;55.556;37.816;2023-09-19T02:27:59;82.97;;;24.92;;
62654;SDS011;48717;55.556;37.816;2023-09-19T02:32:57;135.48;;;25.42;;
62654;SDS011;48717;55.556;37.816;2023-09-19T02:35:25;120.22;;;24.75;;
62654;SDS011;48717;55.556;37.816;2023-09-19T02:37:53;75.47;;;25.73;;
62654;SDS011;48717;55.556;37.816;2023-09-19T02:40:21;148.20;;;25.48;;
62654;SDS011;48717;55.556;37.816;2023-09-19T02:42:53;161.82;;;25.30;;
62654;SDS011;48717;55.556;37.816;2023-09-19T02:45:23;109.60;;;25.40;;
62654;SDS011;48717;55.556;37.816;2023-09-19T02:47:50;119.65;;;25.23;;
62654;SDS011;48717;55.556;37.816;2023-09-19T02:50:18;67.65;;;24.25;;
62654;SDS011;48717;55.556;37.816;2023-09-19T02:52:45;83.38;;;23.88;;
62654;SDS011;48717;55.556;37.816;2023-09-19T02:55:17;88.18;;;25.85;;
62654;SDS011;48717;55.556;37.816;2023-09-19T02:57:47;111.00;;;26.25;;
62654;SDS011;48717;55.556;37.816;2023-09-19T03:00:17;110.43;;;24.35;;
62654;SDS011;48717;55.556;37.816;2023-09-19T03:02:55;74.85;;;24.38;;
62654;SDS011;48717;55.556;37.816;2023-09-19T03:05:24;94.50;;;24.48;;
62654;SDS011;48717;55.556;37.816;2023-09-19T03:07:53;72.30;;;22.60;;
62654;SDS011;48717;55.556;37.816;2023-09-19T03:10:22;81.60;;;24.25;;
62654;SDS011;48717;55.556;37.816;2023-09-19T03:12:53;89.07;;;24.42;;
62654;SDS011;48717;55.556;37.816;2023-09-19T03:15:21;74.93;;;23.45;;
62654;SDS011;48717;55.556;37.816;2023-09-19T03:17:50;71.20;;;22.45;;
62654;SDS011;48717;55.556;37.816;2023-09-19T03:20:22;97.82;;;24.15;;
62654;SDS011;48717;55.556;37.816;2023-09-19T03:22:50;113.30;;;25.75;;
62654;SDS011;48717;55.556;37.816;2023-09-19T03:25:20;72.95;;;25.50;;
62654;SDS011;48717;55.556;37.816;2023-09-19T03:30:18;70.07;;;22.48;;
62654;SDS011;48717;55.556;37.816;2023-09-19T03:32:46;69.97;;;25.23;;
62654;SDS011;48717;55.556;37.816;2023-09-19T03:35:18;70.93;;;24.52;;
62654;SDS011;48717;55.556;37.816;2023-09-19T03:37:46;59.10;;;24.25;;
62654;SDS011;48717;55.556;37.816;2023-09-19T03:40:14;67.40;;;24.67;;
62654;SDS011;48717;55.556;37.816;2023-09-19T03:42:43;58.90;;;23.30;;
62654;SDS011;48717;55.556;37.816;2023-09-19T03:45:12;61.25;;;24.88;;
62654;SDS011;48717;55.556;37.816;2023-09-19T03:47:45;56.45;;;21.52;;
62654;SDS011;48717;55.556;37.816;2023-09-19T03:50:16;48.53;;;21.45;;
62654;SDS011;48717;55.556;37.816;2023-09-19T03:52:45;53.97;;;22.40;;
62654;SDS011;48717;55.556;37.816;2023-09-19T03:55:12;48.63;;;21.15;;
62654;SDS011;48717;55.556;37.816;2023-09-19T03:57:40;50.17;;;21.13;;
62654;SDS011;48717;55.556;37.816;2023-09-19T04:00:09;54.30;;;22.02;;
62654;SDS011;48717;55.556;37.816;2023-09-19T04:02:40;45.88;;;20.08;;
62654;SDS011;48717;55.556;37.816;2023-09-19T04:05:10;38.97;;;19.98;;
62654;SDS011;48717;55.556;37.816;2023-09-19T04:07:37;48.55;;;18.73;;
62654;SDS011;48717;55.556;37.816;2023-09-19T04:10:05;44.15;;;18.05;;
62654;SDS011;48717;55.556;37.816;2023-09-19T04:15:02;36.05;;;18.30;;
62654;SDS011;48717;55.556;37.816;2023-09-19T04:17:31;39.75;;;19.20;;
62654;SDS011;48717;55.556;37.816;2023-09-19T04:20:01;38.78;;;19.40;;
62654;SDS011;48717;55.556;37.816;2023-09-19T04:22:29;40.40;;;20.08;;
62654;SDS011;48717;55.556;37.816;2023-09-19T04:24:56;36.40;;;18.73;;
62654;SDS011;48717;55.556;37.816;2023-09-19T04:27:23;36.72;;;17.15;;
62654;SDS011;48717;55.556;37.816;2023-09-19T04:29:51;37.83;;;19.83;;
62654;SDS011;48717;55.556;37.816;2023-09-19T04:32:20;45.83;;;18.90;;
62654;SDS011;48717;55.556;37.816;2023-09-19T04:34:48;38.08;;;18.15;;
62654;SDS011;48717;55.556;37.816;2023-09-19T04:37:16;48.53;;;20.65;;
62654;SDS011;48717;55.556;37.816;2023-09-19T04:39:44;36.60;;;16.55;;
62654;SDS011;48717;55.556;37.816;2023-09-19T04:42:15;40.35;;;18.92;;
62654;SDS011;48717;55.556;37.816;2023-09-19T04:44:43;39.45;;;18.08;;
62654;SDS011;48717;55.556;37.816;2023-09-19T04:47:10;37.88;;;18.85;;
62654;SDS011;48717;55.556;37.816;2023-09-19T04:49:39;33.47;;;16.63;;
62654;SDS011;48717;55.556;37.816;2023-09-19T04:52:07;39.97;;;17.95;;
62654;SDS011;48717;55.556;37.816;2023-09-19T04:54:34;37.15;;;18.23;;
62654;SDS011;48717;55.556;37.816;2023-09-19T04:57:01;32.08;;;15.55;;
62654;SDS011;48717;55.556;37.816;2023-09-19T04:59:28;32.92;;;18.13;;
62654;SDS011;48717;55.556;37.816;2023-09-19T05:01:56;34.88;;;17.95;;
62654;SDS011;48717;55.556;37.816;2023-09-19T05:04:23;32.92;;;17.85;;
62654;SDS011;48717;55.556;37.816;2023-09-19T05:06:50;38.33;;;17.38;;
62654;SDS011;48717;55.556;37.816;2023-09-19T05:09:17;36.33;;;17.80;;
62654;SDS011;48717;55.556;37.816;2023-09-19T05:11:46;33.60;;;17.73;;
62654;SDS011;48717;55.556;37.816;2023-09-19T05:14:14;34.63;;;17.40;;
62654;SDS011;48717;55.556;37.816;2023-09-19T05:16:41;32.45;;;16.58;;
62654;SDS011;48717;55.556;37.816;2023-09-19T05:19:09;30.33;;;15.82;;
62654;SDS011;48717;55.556;37.816;2023-09-19T05:21:38;32.45;;;16.88;;
62654;SDS011;48717;55.556;37.816;2023-09-19T05:24:05;27.63;;;15.40;;
62654;SDS011;48717;55.556;37.816;2023-09-19T05:26:36;29.75;;;15.85;;
62654;SDS011;48717;55.556;37.816;2023-09-19T05:29:03;27.23;;;15.80;;
62654;SDS011;48717;55.556;37.816;2023-09-19T05:31:31;25.88;;;14.77;;
62654;SDS011;48717;55.556;37.816;2023-09-19T05:33:59;23.20;;;14.50;;
62654;SDS011;48717;55.556;37.816;2023-09-19T05:36:28;33.60;;;15.25;;
62654;SDS011;48717;55.556;37.816;2023-09-19T05:38:56;32.20;;;15.63;;
62654;SDS011;48717;55.556;37.816;2023-09-19T05:41:23;26.33;;;15.45;;
62654;SDS011;48717;55.556;37.816;2023-09-19T05:43:51;31.50;;;16.05;;
62654;SDS011;48717;55.556;37.816;2023-09-19T05:46:18;25.48;;;15.32;;
62654;SDS011;48717;55.556;37.816;2023-09-19T05:48:46;27.90;;;14.88;;
62654;SDS011;48717;55.556;37.816;2023-09-19T05:51:14;26.17;;;14.52;;
62654;SDS011;48717;55.556;37.816;2023-09-19T05:53:41;23.08;;;15.30;;
62654;SDS011;48717;55.556;37.816;2023-09-19T05:56:10;21.58;;;13.20;;
62654;SDS011;48717;55.556;37.816;2023-09-19T05:58:38;23.73;;;14.57;;
62654;SDS011;48717;55.556;37.816;2023-09-19T06:01:05;21.42;;;13.77;;
62654;SDS011;48717;55.556;37.816;2023-09-19T06:03:33;22.83;;;12.13;;
62654;SDS011;48717;55.556;37.816;2023-09-19T06:06:02;20.40;;;13.50;;
62654;SDS011;48717;55.556;37.816;2023-09-19T06:08:29;20.63;;;13.35;;
62654;SDS011;48717;55.556;37.816;2023-09-19T06:10:58;19.27;;;12.52;;
62654;SDS011;48717;55.556;37.816;2023-09-19T06:13:29;27.20;;;12.27;;
62654;SDS011;48717;55.556;37.816;2023-09-19T06:15:56;18.58;;;11.35;;
62654;SDS011;48717;55.556;37.816;2023-09-19T06:18:25;17.15;;;11.15;;
62654;SDS011;48717;55.556;37.816;2023-09-19T06:20:53;15.40;;;10.55;;
62654;SDS011;48717;55.556;37.816;2023-09-19T06:23:21;18.15;;;10.60;;
62654;SDS011;48717;55.556;37.816;2023-09-19T06:25:49;16.13;;;11.32;;
62654;SDS011;48717;55.556;37.816;2023-09-19T06:28:16;15.40;;;11.00;;
62654;SDS011;48717;55.556;37.816;2023-09-19T06:30:50;14.20;;;10.38;;
62654;SDS011;48717;55.556;37.816;2023-09-19T06:33:17;13.57;;;9.98;;
62654;SDS011;48717;55.556;37.816;2023-09-19T06:35:45;14.05;;;11.00;;
62654;SDS011;48717;55.556;37.816;2023-09-19T06:38:13;13.63;;;10.10;;
62654;SDS011;48717;55.556;37.816;2023-09-19T06:40:42;16.63;;;10.20;;
62654;SDS011;48717;55.556;37.816;2023-09-19T06:43:12;15.65;;;10.40;;
62654;SDS011;48717;55.556;37.816;2023-09-19T06:45:40;14.73;;;10.25;;
62654;SDS011;48717;55.556;37.816;2023-09-19T06:48:09;13.38;;;10.20;;
62654;SDS011;48717;55.556;37.816;2023-09-19T06:50:37;16.58;;;10.48;;
62654;SDS011;48717;55.556;37.816;2023-09-19T06:53:05;17.50;;;9.80;;
62654;SDS011;48717;55.556;37.816;2023-09-19T06:55:32;14.32;;;10.77;;
62654;SDS011;48717;55.556;37.816;2023-09-19T06:58:00;14.75;;;10.27;;
62654;SDS011;48717;55.556;37.816;2023-09-19T07:00:28;15.40;;;10.32;;
62654;SDS011;48717;55.556;37.816;2023-09-19T07:02:58;15.60;;;9.77;;
62654;SDS011;48717;55.556;37.816;2023-09-19T07:05:30;15.75;;;11.15;;
62654;SDS011;48717;55.556;37.816;2023-09-19T07:07:58;13.15;;;9.60;;
62654;SDS011;48717;55.556;37.816;2023-09-19T07:10:26;13.82;;;10.35;;
62654;SDS011;48717;55.556;37.816;2023-09-19T07:12:56;13.88;;;9.65;;
62654;SDS011;48717;55.556;37.816;2023-09-19T07:15:25;13.63;;;10.70;;
62654;SDS011;48717;55.556;37.816;2023-09-19T07:17:53;13.57;;;11.02;;
62654;SDS011;48717;55.556;37.816;2023-09-19T07:20:23;16.20;;;12.02;;
62654;SDS011;48717;55.556;37.816;2023-09-19T07:22:56;20.67;;;12.18;;
62654;SDS011;48717;55.556;37.816;2023-09-19T07:25:27;15.48;;;12.35;;
62654;SDS011;48717;55.556;37.816;2023-09-19T07:27:55;15.85;;;12.13;;
62654;SDS011;48717;55.556;37.816;2023-09-19T07:30:23;18.95;;;12.32;;
62654;SDS011;48717;55.556;37.816;2023-09-19T07:32:50;16.63;;;12.23;;
62654;SDS011;48717;55.556;37.816;2023-09-19T07:35:17;17.52;;;12.43;;
62654;SDS011;48717;55.556;37.816;2023-09-19T07:37:47;14.93;;;12.23;;
62654;SDS011;48717;55.556;37.816;2023-09-19T07:40:19;20.05;;;12.27;;
62654;SDS011;48717;55.556;37.816;2023-09-19T07:42:47;16.52;;;12.52;;
62654;SDS011;48717;55.556;37.816;2023-09-19T07:45:15;16.63;;;12.65;;
62654;SDS011;48717;55.556;37.816;2023-09-19T07:47:44;17.23;;;12.15;;
62654;SDS011;48717;55.556;37.816;2023-09-19T07:50:13;16.75;;;11.57;;
62654;SDS011;48717;55.556;37.816;2023-09-19T07:52:43;17.20;;;11.43;;
62654;SDS011;48717;55.556;37.816;2023-09-19T07:55:10;15.15;;;11.70;;
62654;SDS011;48717;55.556;37.816;2023-09-19T07:57:44;16.20;;;12.25;;
62654;SDS011;48717;55.556;37.816;2023-09-19T08:00:12;17.25;;;12.45;;
62654;SDS011;48717;55.556;37.816;2023-09-19T08:02:40;16.52;;;12.13;;
62654;SDS011;48717;55.556;37.816;2023-09-19T08:05:10;21.02;;;12.75;;
62654;SDS011;48717;55.556;37.816;2023-09-19T08:07:39;19.10;;;12.38;;
62654;SDS011;48717;55.556;37.816;2023-09-19T08:10:08;16.73;;;12.00;;
62654;SDS011;48717;55.556;37.816;2023-09-19T08:12:40;19.33;;;12.18;;
62654;SDS011;48717;55.556;37.816;2023-09-19T08:15:17;17.30;;;12.30;;
62654;SDS011;48717;55.556;37.816;2023-09-19T08:17:49;19.80;;;12.32;;
62654;SDS011;48717;55.556;37.816;2023-09-19T08:20:17;15.90;;;11.45;;
62654;SDS011;48717;55.556;37.816;2023-09-19T08:22:49;22.02;;;12.30;;
62654;SDS011;48717;55.556;37.816;2023-09-19T08:25:20;19.02;;;12.45;;
62654;SDS011;48717;55.556;37.816;2023-09-19T08:27:52;17.88;;;12.85;;
62654;SDS011;48717;55.556;37.816;2023-09-19T08:30:20;17.90;;;12.57;;
62654;SDS011;48717;55.556;37.816;2023-09-19T08:32:51;16.05;;;11.77;;
62654;SDS011;48717;55.556;37.816;2023-09-19T08:35:25;20.00;;;12.68;;
62654;SDS011;48717;55.556;37.816;2023-09-19T08:37:52;17.10;;;12.48;;
62654;SDS011;48717;55.556;37.816;2023-09-19T08:40:19;15.32;;;12.43;;
62654;SDS011;48717;55.556;37.816;2023-09-19T08:42:49;15.57;;;11.35;;
62654;SDS011;48717;55.556;37.816;2023-09-19T08:45:24;17.75;;;12.38;;
62654;SDS011;48717;55.556;37.816;2023-09-19T08:50:47;16.95;;;11.07;;
62654;SDS011;48717;55.556;37.816;2023-09-19T08:56:01;15.75;;;11.82;;
62654;SDS011;48717;55.556;37.816;2023-09-19T08:58:34;17.92;;;11.25;;
62654;SDS011;48717;55.556;37.816;2023-09-19T09:01:07;16.73;;;11.20;;
62654;SDS011;48717;55.556;37.816;2023-09-19T09:03:37;12.30;;;10.25;;
62654;SDS011;48717;55.556;37.816;2023-09-19T09:06:08;14.63;;;10.32;;
62654;SDS011;48717;55.556;37.816;2023-09-19T09:08:41;12.85;;;10.38;;
62654;SDS011;48717;55.556;37.816;2023-09-19T09:11:09;13.27;;;10.63;;
62654;SDS011;48717;55.556;37.816;2023-09-19T09:13:41;14.77;;;10.55;;
62654;SDS011;48717;55.556;37.816;2023-09-19T09:16:09;14.55;;;10.10;;
62654;SDS011;48717;55.556;37.816;2023-09-19T09:18:36;24.95;;;10.00;;
62654;SDS011;48717;55.556;37.816;2023-09-19T09:21:04;13.18;;;10.43;;
62654;SDS011;48717;55.556;37.816;2023-09-19T09:23:31;14.32;;;10.90;;
62654;SDS011;48717;55.556;37.816;2023-09-19T09:25:59;13.88;;;10.10;;
62654;SDS011;48717;55.556;37.816;2023-09-19T09:28:30;13.80;;;10.30;;
62654;SDS011;48717;55.556;37.816;2023-09-19T09:30:58;20.25;;;10.90;;
62654;SDS011;48717;55.556;37.816;2023-09-19T09:33:25;14.07;;;10.10;;
62654;SDS011;48717;55.556;37.816;2023-09-19T09:35:53;13.48;;;9.88;;
62654;SDS011;48717;55.556;37.816;2023-09-19T09:38:27;12.50;;;10.07;;
62654;SDS011;48717;55.556;37.816;2023-09-19T09:40:59;12.63;;;9.98;;
62654;SDS011;48717;55.556;37.816;2023-09-19T09:43:37;16.20;;;10.23;;
62654;SDS011;48717;55.556;37.816;2023-09-19T09:46:08;13.68;;;10.10;;
62654;SDS011;48717;55.556;37.816;2023-09-19T09:49:05;13.40;;;9.95;;
62654;SDS011;48717;55.556;37.816;2023-09-19T09:52:04;13.48;;;10.50;;
62654;SDS011;48717;55.556;37.816;2023-09-19T09:54:37;14.70;;;9.52;;
62654;SDS011;48717;55.556;37.816;2023-09-19T09:57:09;12.73;;;9.88;;
62654;SDS011;48717;55.556;37.816;2023-09-19T09:59:51;14.05;;;9.82;;
62654;SDS011;48717;55.556;37.816;2023-09-19T10:02:28;12.23;;;9.50;;
62654;SDS011;48717;55.556;37.816;2023-09-19T10:05:00;14.73;;;9.55;;
62654;SDS011;48717;55.556;37.816;2023-09-19T10:07:49;18.08;;;10.05;;
62654;SDS011;48717;55.556;37.816;2023-09-19T10:13:10;14.82;;;10.13;;
62654;SDS011;48717;55.556;37.816;2023-09-19T10:15:44;16.20;;;10.05;;
62654;SDS011;48717;55.556;37.816;2023-09-19T10:18:20;15.38;;;10.35;;
62654;SDS011;48717;55.556;37.816;2023-09-19T10:20:49;12.88;;;9.88;;
62654;SDS011;48717;55.556;37.816;2023-09-19T10:23:18;13.35;;;10.45;;
62654;SDS011;48717;55.556;37.816;2023-09-19T10:25:51;19.60;;;10.13;;
62654;SDS011;48717;55.556;37.816;2023-09-19T10:28:20;16.33;;;10.50;;
62654;SDS011;48717;55.556;37.816;2023-09-19T10:30:52;17.50;;;10.25;;
62654;SDS011;48717;55.556;37.816;2023-09-19T10:33:21;12.27;;;9.93;;
62654;SDS011;48717;55.556;37.816;2023-09-19T10:35:53;15.23;;;10.27;;
62654;SDS011;48717;55.556;37.816;2023-09-19T10:38:24;16.30;;;10.55;;
62654;SDS011;48717;55.556;37.816;2023-09-19T10:40:55;14.68;;;10.63;;
62654;SDS011;48717;55.556;37.816;2023-09-19T10:43:31;16.02;;;9.93;;
62654;SDS011;48717;55.556;37.816;2023-09-19T10:46:03;13.60;;;10.88;;
62654;SDS011;48717;55.556;37.816;2023-09-19T10:48:34;15.35;;;10.45;;
62654;SDS011;48717;55.556;37.816;2023-09-19T10:53:47;13.88;;;10.77;;
62654;SDS011;48717;55.556;37.816;2023-09-19T10:56:26;16.85;;;11.13;;
62654;SDS011;48717;55.556;37.816;2023-09-19T10:59:12;15.07;;;11.10;;
62654;SDS011;48717;55.556;37.816;2023-09-19T11:01:46;17.73;;;10.35;;
62654;SDS011;48717;55.556;37.816;2023-09-19T11:14:59;14.70;;;10.40;;
62654;SDS011;48717;55.556;37.816;2023-09-19T11:17:34;13.48;;;10.00;;
62654;SDS011;48717;55.556;37.816;2023-09-19T11:30:35;13.90;;;9.82;;
62654;SDS011;48717;55.556;37.816;2023-09-19T11:33:17;12.23;;;9.18;;
62654;SDS011;48717;55.556;37.816;2023-09-19T11:36:07;12.63;;;9.18;;
62654;SDS011;48717;55.556;37.816;2023-09-19T11:46:27;11.82;;;9.05;;
62654;SDS011;48717;55.556;37.816;2023-09-19T11:48:55;10.90;;;8.48;;
62654;SDS011;48717;55.556;37.816;2023-09-19T11:51:43;13.65;;;8.10;;
62654;SDS011;48717;55.556;37.816;2023-09-19T11:54:12;13.90;;;8.52;;
62654;SDS011;48717;55.556;37.816;2023-09-19T11:56:45;14.82;;;7.95;;
62654;SDS011;48717;55.556;37.816;2023-09-19T11:59:26;13.80;;;8.20;;
62654;SDS011;48717;55.556;37.816;2023-09-19T12:01:59;14.45;;;7.43;;
62654;SDS011;48717;55.556;37.816;2023-09-19T12:07:06;11.80;;;8.43;;
62654;SDS011;48717;55.556;37.816;2023-09-19T12:09:44;16.08;;;9.13;;
62654;SDS011;48717;55.556;37.816;2023-09-19T12:12:22;11.95;;;9.35;;
62654;SDS011;48717;55.556;37.816;2023-09-19T12:14:50;13.38;;;9.40;;
62654;SDS011;48717;55.556;37.816;2023-09-19T12:17:17;10.57;;;9.50;;
62654;SDS011;48717;55.556;37.816;2023-09-19T12:19:51;14.68;;;9.60;;
62654;SDS011;48717;55.556;37.816;2023-09-19T12:22:19;12.07;;;9.25;;
62654;SDS011;48717;55.556;37.816;2023-09-19T12:24:49;15.10;;;9.52;;
62654;SDS011;48717;55.556;37.816;2023-09-19T12:27:17;20.83;;;9.90;;
62654;SDS011;48717;55.556;37.816;2023-09-19T12:29:45;15.90;;;9.13;;
62654;SDS011;48717;55.556;37.816;2023-09-19T12:32:16;14.90;;;8.68;;
62654;SDS011;48717;55.556;37.816;2023-09-19T12:34:50;12.30;;;8.85;;
62654;SDS011;48717;55.556;37.816;2023-09-19T12:37:20;11.02;;;8.18;;
62654;SDS011;48717;55.556;37.816;2023-09-19T12:39:49;18.23;;;8.57;;
62654;SDS011;48717;55.556;37.816;2023-09-19T12:42:20;13.27;;;9.13;;
62654;SDS011;48717;55.556;37.816;2023-09-19T12:44:50;13.20;;;8.80;;
62654;SDS011;48717;55.556;37.816;2023-09-19T12:47:30;16.17;;;9.00;;
62654;SDS011;48717;55.556;37.816;2023-09-19T12:52:48;16.40;;;8.80;;
62654;SDS011;48717;55.556;37.816;2023-09-19T12:55:20;10.43;;;8.15;;
62654;SDS011;48717;55.556;37.816;2023-09-19T13:05:55;15.57;;;9.27;;
62654;SDS011;48717;55.556;37.816;2023-09-19T13:08:25;12.55;;;9.90;;
62654;SDS011;48717;55.556;37.816;2023-09-19T13:11:10;14.73;;;8.73;;
62654;SDS011;48717;55.556;37.816;2023-09-19T13:13:38;15.05;;;9.40;;
62654;SDS011;48717;55.556;37.816;2023-09-19T13:16:07;12.55;;;9.20;;
62654;SDS011;48717;55.556;37.816;2023-09-19T13:18:45;15.25;;;9.15;;
62654;SDS011;48717;55.556;37.816;2023-09-19T13:21:32;14.02;;;9.45;;
62654;SDS011;48717;55.556;37.816;2023-09-19T13:24:23;14.23;;;8.95;;
62654;SDS011;48717;55.556;37.816;2023-09-19T13:26:55;12.43;;;9.05;;
62654;SDS011;48717;55.556;37.816;2023-09-19T13:29:23;20.58;;;9.10;;
62654;SDS011;48717;55.556;37.816;2023-09-19T13:31:51;16.10;;;9.38;;
62654;SDS011;48717;55.556;37.816;2023-09-19T13:34:22;14.18;;;9.45;;
62654;SDS011;48717;55.556;37.816;2023-09-19T13:36:49;14.13;;;9.43;;
62654;SDS011;48717;55.556;37.816;2023-09-19T13:39:17;13.98;;;10.02;;
62654;SDS011;48717;55.556;37.816;2023-09-19T13:41:44;19.85;;;9.57;;
62654;SDS011;48717;55.556;37.816;2023-09-19T13:44:14;13.85;;;9.70;;
62654;SDS011;48717;55.556;37.816;2023-09-19T13:46:41;12.52;;;9.77;;
62654;SDS011;48717;55.556;37.816;2023-09-19T13:49:13;14.88;;;10.68;;
62654;SDS011;48717;55.556;37.816;2023-09-19T13:51:40;13.25;;;9.60;;
62654;SDS011;48717;55.556;37.816;2023-09-19T13:54:11;13.57;;;9.77;;
62654;SDS011;48717;55.556;37.816;2023-09-19T13:56:39;12.75;;;10.32;;
62654;SDS011;48717;55.556;37.816;2023-09-19T13:59:07;17.17;;;9.48;;
62654;SDS011;48717;55.556;37.816;2023-09-19T14:01:39;14.82;;;10.07;;
62654;SDS011;48717;55.556;37.816;2023-09-19T14:04:13;13.50;;;10.30;;
62654;SDS011;48717;55.556;37.816;2023-09-19T14:06:42;20.67;;;10.90;;
62654;SDS011;48717;55.556;37.816;2023-09-19T14:09:09;17.77;;;10.27;;
62654;SDS011;48717;55.556;37.816;2023-09-19T14:11:38;17.30;;;12.43;;
62654;SDS011;48717;55.556;37.816;2023-09-19T14:14:05;18.33;;;11.07;;
62654;SDS011;48717;55.556;37.816;2023-09-19T14:16:32;12.95;;;10.00;;
62654;SDS011;48717;55.556;37.816;2023-09-19T14:19:00;14.70;;;9.45;;
62654;SDS011;48717;55.556;37.816;2023-09-19T14:21:27;14.32;;;10.27;;
62654;SDS011;48717;55.556;37.816;2023-09-19T14:23:54;14.48;;;10.27;;
62654;SDS011;48717;55.556;37.816;2023-09-19T14:26:22;12.52;;;10.15;;
62654;SDS011;48717;55.556;37.816;2023-09-19T14:28:49;11.63;;;9.95;;
62654;SDS011;48717;55.556;37.816;2023-09-19T14:31:17;14.73;;;9.77;;
62654;SDS011;48717;55.556;37.816;2023-09-19T14:33:44;15.90;;;10.32;;
62654;SDS011;48717;55.556;37.816;2023-09-19T14:36:11;19.67;;;11.23;;
62654;SDS011;48717;55.556;37.816;2023-09-19T14:38:40;17.63;;;9.70;;
62654;SDS011;48717;55.556;37.816;2023-09-19T14:41:07;16.80;;;11.27;;
62654;SDS011;48717;55.556;37.816;2023-09-19T14:43:35;15.98;;;11.43;;
62654;SDS011;48717;55.556;37.816;2023-09-19T14:46:06;16.98;;;11.27;;
62654;SDS011;48717;55.556;37.816;2023-09-19T14:48:39;15.50;;;11.02;;
62654;SDS011;48717;55.556;37.816;2023-09-19T14:51:08;18.08;;;11.80;;
62654;SDS011;48717;55.556;37.816;2023-09-19T14:53:35;18.67;;;11.63;;
62654;SDS011;48717;55.556;37.816;2023-09-19T14:56:07;15.80;;;11.70;;
62654;SDS011;48717;55.556;37.816;2023-09-19T14:58:35;17.83;;;11.37;;
62654;SDS011;48717;55.556;37.816;2023-09-19T15:01:06;18.23;;;10.38;;
62654;SDS011;48717;55.556;37.816;2023-09-19T15:03:38;17.33;;;11.07;;
62654;SDS011;48717;55.556;37.816;2023-09-19T15:06:10;22.55;;;12.07;;
62654;SDS011;48717;55.556;37.816;2023-09-19T15:08:41;16.92;;;13.18;;
62654;SDS011;48717;55.556;37.816;2023-09-19T15:11:15;17.90;;;11.18;;
62654;SDS011;48717;55.556;37.816;2023-09-19T15:13:45;21.77;;;11.60;;
62654;SDS011;48717;55.556;37.816;2023-09-19T15:16:14;17.15;;;12.00;;
62654;SDS011;48717;55.556;37.816;2023-09-19T15:18:42;14.57;;;10.43;;
62654;SDS011;48717;55.556;37.816;2023-09-19T15:21:11;12.82;;;9.85;;
62654;SDS011;48717;55.556;37.816;2023-09-19T15:23:39;21.00;;;11.00;;
62654;SDS011;48717;55.556;37.816;2023-09-19T15:28:38;16.48;;;10.45;;
62654;SDS011;48717;55.556;37.816;2023-09-19T15:31:07;24.40;;;17.10;;
62654;SDS011;48717;55.556;37.816;2023-09-19T15:33:35;15.83;;;11.30;;
62654;SDS011;48717;55.556;37.816;2023-09-19T15:36:04;21.35;;;13.73;;
62654;SDS011;48717;55.556;37.816;2023-09-19T15:41:33;16.92;;;11.88;;
62654;SDS011;48717;55.556;37.816;2023-09-19T15:44:02;17.60;;;11.32;;
62654;SDS011;48717;55.556;37.816;2023-09-19T15:46:31;16.45;;;10.90;;
62654;SDS011;48717;55.556;37.816;2023-09-19T15:49:03;16.90;;;10.95;;